sensor_id;sensor_type;location;lat;lon;timestamp;temperature;humidity
19252;DHT22;9760;50.944;5.304;2022-07-18T00:00:39;18.80;99.90
19252;DHT22;9760;50.944;5.304;2022-07-18T00:03:05;18.90;99.90
19252;DHT22;9760;50.944;5.304;2022-07-18T00:05:30;18.90;99.90
19252;DHT22;9760;50.944;5.304;2022-07-18T00:07:56;18.80;99.90
19252;DHT22;9760;50.944;5.304;2022-07-18T00:10:22;18.70;99.90
19252;DHT22;9760;50.944;5.304;2022-07-18T00:12:48;18.60;99.90
19252;DHT22;9760;50.944;5.304;2022-07-18T00:15:13;18.60;99.90
19252;DHT22;9760;50.944;5.304;2022-07-18T00:17:39;18.50;99.90
19252;DHT22;9760;50.944;5.304;2022-07-18T00:20:07;18.40;99.90
19252;DHT22;9760;50.944;5.304;2022-07-18T00:22:33;18.50;99.90
19252;DHT22;9760;50.944;5.304;2022-07-18T00:24:59;18.60;99.90
19252;DHT22;9760;50.944;5.304;2022-07-18T00:27:24;18.70;99.90
19252;DHT22;9760;50.944;5.304;2022-07-18T00:29:50;18.80;99.90
19252;DHT22;9760;50.944;5.304;2022-07-18T00:32:16;18.90;99.90
19252;DHT22;9760;50.944;5.304;2022-07-18T00:34:41;18.90;99.90
19252;DHT22;9760;50.944;5.304;2022-07-18T00:37:07;18.90;99.90
19252;DHT22;9760;50.944;5.304;2022-07-18T00:39:33;18.90;99.90
19252;DHT22;9760;50.944;5.304;2022-07-18T00:41:59;18.90;99.90
19252;DHT22;9760;50.944;5.304;2022-07-18T00:44:26;18.80;99.90
19252;DHT22;9760;50.944;5.304;2022-07-18T00:46:56;18.90;99.90
19252;DHT22;9760;50.944;5.304;2022-07-18T00:49:23;18.80;99.90
19252;DHT22;9760;50.944;5.304;2022-07-18T00:51:49;18.80;99.90
19252;DHT22;9760;50.944;5.304;2022-07-18T00:54:14;18.70;99.90
19252;DHT22;9760;50.944;5.304;2022-07-18T00:56:40;18.50;99.90
19252;DHT22;9760;50.944;5.304;2022-07-18T00:59:07;18.50;99.90
19252;DHT22;9760;50.944;5.304;2022-07-18T01:01:32;18.20;99.90
19252;DHT22;9760;50.944;5.304;2022-07-18T01:06:38;18.00;99.90
19252;DHT22;9760;50.944;5.304;2022-07-18T01:09:04;18.00;99.90
19252;DHT22;9760;50.944;5.304;2022-07-18T01:11:31;18.00;99.90
19252;DHT22;9760;50.944;5.304;2022-07-18T01:13:57;18.00;99.90
19252;DHT22;9760;50.944;5.304;2022-07-18T01:16:23;18.00;99.90
19252;DHT22;9760;50.944;5.304;2022-07-18T01:18:50;17.90;99.90
19252;DHT22;9760;50.944;5.304;2022-07-18T01:21:17;17.90;99.90
19252;DHT22;9760;50.944;5.304;2022-07-18T01:23:44;18.00;99.90
19252;DHT22;9760;50.944;5.304;2022-07-18T01:26:12;18.00;99.90
19252;DHT22;9760;50.944;5.304;2022-07-18T01:28:38;18.00;99.90
19252;DHT22;9760;50.944;5.304;2022-07-18T01:31:04;17.90;99.90
19252;DHT22;9760;50.944;5.304;2022-07-18T01:33:33;17.70;99.90
19252;DHT22;9760;50.944;5.304;2022-07-18T01:36:03;17.80;99.90
19252;DHT22;9760;50.944;5.304;2022-07-18T01:38:31;17.80;99.90
19252;DHT22;9760;50.944;5.304;2022-07-18T01:40:57;17.70;99.90
19252;DHT22;9760;50.944;5.304;2022-07-18T01:43:24;17.60;99.90
19252;DHT22;9760;50.944;5.304;2022-07-18T01:45:50;17.60;99.90
19252;DHT22;9760;50.944;5.304;2022-07-18T01:48:16;17.60;99.90
19252;DHT22;9760;50.944;5.304;2022-07-18T01:50:42;17.60;99.90
19252;DHT22;9760;50.944;5.304;2022-07-18T01:53:08;17.60;99.90
19252;DHT22;9760;50.944;5.304;2022-07-18T01:55:34;17.50;99.90
19252;DHT22;9760;50.944;5.304;2022-07-18T01:58:00;17.40;99.90
19252;DHT22;9760;50.944;5.304;2022-07-18T02:00:25;17.40;99.90
19252;DHT22;9760;50.944;5.304;2022-07-18T02:02:51;17.40;99.90
19252;DHT22;9760;50.944;5.304;2022-07-18T02:05:17;17.40;99.90
19252;DHT22;9760;50.944;5.304;2022-07-18T02:07:43;17.50;99.90
19252;DHT22;9760;50.944;5.304;2022-07-18T02:10:15;17.50;99.90
19252;DHT22;9760;50.944;5.304;2022-07-18T02:12:41;17.30;99.90
19252;DHT22;9760;50.944;5.304;2022-07-18T02:15:08;17.30;99.90
19252;DHT22;9760;50.944;5.304;2022-07-18T02:17:35;17.20;99.90
19252;DHT22;9760;50.944;5.304;2022-07-18T02:20:01;17.30;99.90
19252;DHT22;9760;50.944;5.304;2022-07-18T02:22:27;17.20;99.90
19252;DHT22;9760;50.944;5.304;2022-07-18T02:24:53;17.20;99.90
19252;DHT22;9760;50.944;5.304;2022-07-18T02:27:19;17.30;99.90
19252;DHT22;9760;50.944;5.304;2022-07-18T02:29:45;17.20;99.90
19252;DHT22;9760;50.944;5.304;2022-07-18T02:32:11;17.20;99.90
19252;DHT22;9760;50.944;5.304;2022-07-18T02:34:37;17.10;99.90
19252;DHT22;9760;50.944;5.304;2022-07-18T02:37:03;17.00;99.90
19252;DHT22;9760;50.944;5.304;2022-07-18T02:39:29;17.00;99.90
19252;DHT22;9760;50.944;5.304;2022-07-18T02:41:55;16.90;99.90
19252;DHT22;9760;50.944;5.304;2022-07-18T02:44:21;16.80;99.90
19252;DHT22;9760;50.944;5.304;2022-07-18T02:46:47;16.80;99.90
19252;DHT22;9760;50.944;5.304;2022-07-18T02:49:13;16.70;99.90
19252;DHT22;9760;50.944;5.304;2022-07-18T02:52:04;16.70;99.90
19252;DHT22;9760;50.944;5.304;2022-07-18T02:54:32;16.70;99.90
19252;DHT22;9760;50.944;5.304;2022-07-18T02:56:58;16.70;99.90
19252;DHT22;9760;50.944;5.304;2022-07-18T02:59:25;16.80;99.90
19252;DHT22;9760;50.944;5.304;2022-07-18T03:01:50;16.90;99.90
19252;DHT22;9760;50.944;5.304;2022-07-18T03:04:17;16.80;99.90
19252;DHT22;9760;50.944;5.304;2022-07-18T03:06:43;16.80;99.90
19252;DHT22;9760;50.944;5.304;2022-07-18T03:09:09;16.70;99.90
19252;DHT22;9760;50.944;5.304;2022-07-18T03:11:34;16.70;99.90
19252;DHT22;9760;50.944;5.304;2022-07-18T03:14:00;16.70;99.90
19252;DHT22;9760;50.944;5.304;2022-07-18T03:16:26;16.80;99.90
19252;DHT22;9760;50.944;5.304;2022-07-18T03:18:51;16.90;99.90
19252;DHT22;9760;50.944;5.304;2022-07-18T03:21:17;16.90;99.90
19252;DHT22;9760;50.944;5.304;2022-07-18T03:23:43;16.90;99.90
19252;DHT22;9760;50.944;5.304;2022-07-18T03:26:08;16.90;99.90
19252;DHT22;9760;50.944;5.304;2022-07-18T03:28:34;16.90;99.90
19252;DHT22;9760;50.944;5.304;2022-07-18T03:31:00;16.90;99.90
19252;DHT22;9760;50.944;5.304;2022-07-18T03:33:26;16.90;99.90
19252;DHT22;9760;50.944;5.304;2022-07-18T03:35:52;17.00;99.90
19252;DHT22;9760;50.944;5.304;2022-07-18T03:38:17;17.00;99.90
19252;DHT22;9760;50.944;5.304;2022-07-18T03:40:43;16.90;99.90
19252;DHT22;9760;50.944;5.304;2022-07-18T03:43:09;16.80;99.90
19252;DHT22;9760;50.944;5.304;2022-07-18T03:45:34;16.80;99.90
19252;DHT22;9760;50.944;5.304;2022-07-18T03:48:00;16.70;99.90
19252;DHT22;9760;50.944;5.304;2022-07-18T03:50:26;16.80;99.90
19252;DHT22;9760;50.944;5.304;2022-07-18T03:52:53;16.80;99.90
19252;DHT22;9760;50.944;5.304;2022-07-18T03:55:18;16.80;99.90
19252;DHT22;9760;50.944;5.304;2022-07-18T03:57:44;16.90;99.90
19252;DHT22;9760;50.944;5.304;2022-07-18T04:00:10;16.80;99.90
19252;DHT22;9760;50.944;5.304;2022-07-18T04:02:44;16.80;99.90
19252;DHT22;9760;50.944;5.304;2022-07-18T04:05:11;16.90;99.90
19252;DHT22;9760;50.944;5.304;2022-07-18T04:07:37;16.90;99.90
19252;DHT22;9760;50.944;5.304;2022-07-18T04:10:03;16.90;99.90
19252;DHT22;9760;50.944;5.304;2022-07-18T04:12:29;16.90;99.90
19252;DHT22;9760;50.944;5.304;2022-07-18T04:14:55;16.90;99.90
19252;DHT22;9760;50.944;5.304;2022-07-18T04:17:21;16.90;99.90
19252;DHT22;9760;50.944;5.304;2022-07-18T04:19:47;16.90;99.90
19252;DHT22;9760;50.944;5.304;2022-07-18T04:22:12;16.90;99.90
19252;DHT22;9760;50.944;5.304;2022-07-18T04:24:38;16.90;99.90
19252;DHT22;9760;50.944;5.304;2022-07-18T04:27:03;16.90;99.90
19252;DHT22;9760;50.944;5.304;2022-07-18T04:29:29;16.90;99.90
19252;DHT22;9760;50.944;5.304;2022-07-18T04:31:57;17.00;99.90
19252;DHT22;9760;50.944;5.304;2022-07-18T04:34:23;17.00;99.90
19252;DHT22;9760;50.944;5.304;2022-07-18T04:36:49;16.80;99.90
19252;DHT22;9760;50.944;5.304;2022-07-18T04:39:14;16.80;99.90
19252;DHT22;9760;50.944;5.304;2022-07-18T04:41:42;16.90;99.90
19252;DHT22;9760;50.944;5.304;2022-07-18T04:44:08;16.90;99.90
19252;DHT22;9760;50.944;5.304;2022-07-18T04:46:34;16.90;99.90
19252;DHT22;9760;50.944;5.304;2022-07-18T04:48:59;17.00;99.90
19252;DHT22;9760;50.944;5.304;2022-07-18T04:51:25;17.00;99.90
19252;DHT22;9760;50.944;5.304;2022-07-18T04:53:51;17.10;99.90
19252;DHT22;9760;50.944;5.304;2022-07-18T04:56:16;17.00;99.90
19252;DHT22;9760;50.944;5.304;2022-07-18T04:58:42;17.00;99.90
19252;DHT22;9760;50.944;5.304;2022-07-18T05:01:08;17.10;99.90
19252;DHT22;9760;50.944;5.304;2022-07-18T05:03:34;17.20;99.90
19252;DHT22;9760;50.944;5.304;2022-07-18T05:06:00;17.30;99.90
19252;DHT22;9760;50.944;5.304;2022-07-18T05:08:25;17.50;99.90
19252;DHT22;9760;50.944;5.304;2022-07-18T05:10:51;17.60;99.90
19252;DHT22;9760;50.944;5.304;2022-07-18T05:13:17;17.70;99.90
19252;DHT22;9760;50.944;5.304;2022-07-18T05:15:42;17.80;99.90
19252;DHT22;9760;50.944;5.304;2022-07-18T05:18:08;17.90;99.90
19252;DHT22;9760;50.944;5.304;2022-07-18T05:20:33;18.00;99.90
19252;DHT22;9760;50.944;5.304;2022-07-18T05:22:59;18.10;99.90
19252;DHT22;9760;50.944;5.304;2022-07-18T05:25:25;18.20;99.90
19252;DHT22;9760;50.944;5.304;2022-07-18T05:27:52;18.40;99.90
19252;DHT22;9760;50.944;5.304;2022-07-18T05:30:18;18.50;99.90
19252;DHT22;9760;50.944;5.304;2022-07-18T05:32:45;18.60;99.90
19252;DHT22;9760;50.944;5.304;2022-07-18T05:35:12;18.80;99.90
19252;DHT22;9760;50.944;5.304;2022-07-18T05:37:38;18.90;99.90
19252;DHT22;9760;50.944;5.304;2022-07-18T05:40:05;19.00;99.90
19252;DHT22;9760;50.944;5.304;2022-07-18T05:42:31;19.10;99.90
19252;DHT22;9760;50.944;5.304;2022-07-18T05:44:56;19.20;99.90
19252;DHT22;9760;50.944;5.304;2022-07-18T05:47:22;19.30;99.90
19252;DHT22;9760;50.944;5.304;2022-07-18T05:49:48;19.30;99.90
19252;DHT22;9760;50.944;5.304;2022-07-18T05:52:13;19.50;99.90
19252;DHT22;9760;50.944;5.304;2022-07-18T05:54:39;19.60;99.90
19252;DHT22;9760;50.944;5.304;2022-07-18T05:57:05;19.70;99.90
19252;DHT22;9760;50.944;5.304;2022-07-18T05:59:31;19.80;99.90
19252;DHT22;9760;50.944;5.304;2022-07-18T06:01:56;19.90;99.90
19252;DHT22;9760;50.944;5.304;2022-07-18T06:04:22;19.90;99.90
19252;DHT22;9760;50.944;5.304;2022-07-18T06:06:48;20.00;99.90
19252;DHT22;9760;50.944;5.304;2022-07-18T06:09:15;20.10;99.90
19252;DHT22;9760;50.944;5.304;2022-07-18T06:11:41;20.10;99.90
19252;DHT22;9760;50.944;5.304;2022-07-18T06:14:07;20.20;99.90
19252;DHT22;9760;50.944;5.304;2022-07-18T06:16:33;20.30;99.90
19252;DHT22;9760;50.944;5.304;2022-07-18T06:18:59;20.40;99.90
19252;DHT22;9760;50.944;5.304;2022-07-18T06:21:25;20.60;99.90
19252;DHT22;9760;50.944;5.304;2022-07-18T06:23:50;20.70;99.90
19252;DHT22;9760;50.944;5.304;2022-07-18T06:26:16;20.80;99.90
19252;DHT22;9760;50.944;5.304;2022-07-18T06:28:42;20.90;99.90
19252;DHT22;9760;50.944;5.304;2022-07-18T06:31:07;21.00;99.90
19252;DHT22;9760;50.944;5.304;2022-07-18T06:33:33;21.10;99.90
19252;DHT22;9760;50.944;5.304;2022-07-18T06:35:59;21.20;99.90
19252;DHT22;9760;50.944;5.304;2022-07-18T06:38:25;21.30;99.90
19252;DHT22;9760;50.944;5.304;2022-07-18T06:40:50;21.30;99.90
19252;DHT22;9760;50.944;5.304;2022-07-18T06:43:16;21.40;99.90
19252;DHT22;9760;50.944;5.304;2022-07-18T06:45:48;21.40;99.90
19252;DHT22;9760;50.944;5.304;2022-07-18T06:48:14;21.50;99.90
19252;DHT22;9760;50.944;5.304;2022-07-18T06:50:41;21.50;99.90
19252;DHT22;9760;50.944;5.304;2022-07-18T06:53:06;21.50;99.90
19252;DHT22;9760;50.944;5.304;2022-07-18T06:55:32;21.50;99.90
19252;DHT22;9760;50.944;5.304;2022-07-18T06:57:58;21.60;99.90
19252;DHT22;9760;50.944;5.304;2022-07-18T07:00:24;21.70;99.90
19252;DHT22;9760;50.944;5.304;2022-07-18T07:02:50;21.80;99.90
19252;DHT22;9760;50.944;5.304;2022-07-18T07:05:17;21.90;99.90
19252;DHT22;9760;50.944;5.304;2022-07-18T07:07:44;22.00;99.90
19252;DHT22;9760;50.944;5.304;2022-07-18T07:10:10;22.10;99.90
19252;DHT22;9760;50.944;5.304;2022-07-18T07:12:47;22.20;99.90
19252;DHT22;9760;50.944;5.304;2022-07-18T07:15:14;22.30;99.90
19252;DHT22;9760;50.944;5.304;2022-07-18T07:17:40;22.40;99.90
19252;DHT22;9760;50.944;5.304;2022-07-18T07:20:07;22.50;99.90
19252;DHT22;9760;50.944;5.304;2022-07-18T07:22:41;22.60;99.90
19252;DHT22;9760;50.944;5.304;2022-07-18T07:25:08;22.80;99.90
19252;DHT22;9760;50.944;5.304;2022-07-18T07:27:34;22.90;99.90
19252;DHT22;9760;50.944;5.304;2022-07-18T07:29:59;22.90;99.90
19252;DHT22;9760;50.944;5.304;2022-07-18T07:32:26;22.90;99.90
19252;DHT22;9760;50.944;5.304;2022-07-18T07:34:52;23.10;99.90
19252;DHT22;9760;50.944;5.304;2022-07-18T07:37:17;23.20;99.90
19252;DHT22;9760;50.944;5.304;2022-07-18T07:39:43;23.20;99.90
19252;DHT22;9760;50.944;5.304;2022-07-18T07:42:09;23.30;99.90
19252;DHT22;9760;50.944;5.304;2022-07-18T07:44:35;23.40;99.90
19252;DHT22;9760;50.944;5.304;2022-07-18T07:47:00;23.40;99.90
19252;DHT22;9760;50.944;5.304;2022-07-18T07:49:26;23.50;99.90
19252;DHT22;9760;50.944;5.304;2022-07-18T07:51:52;23.60;99.90
19252;DHT22;9760;50.944;5.304;2022-07-18T07:54:17;23.80;99.90
19252;DHT22;9760;50.944;5.304;2022-07-18T07:56:43;23.90;99.90
19252;DHT22;9760;50.944;5.304;2022-07-18T07:59:08;24.00;99.90
19252;DHT22;9760;50.944;5.304;2022-07-18T08:01:34;24.20;99.90
19252;DHT22;9760;50.944;5.304;2022-07-18T08:04:00;24.40;99.90
19252;DHT22;9760;50.944;5.304;2022-07-18T08:06:26;24.50;99.90
19252;DHT22;9760;50.944;5.304;2022-07-18T08:08:52;24.60;99.90
19252;DHT22;9760;50.944;5.304;2022-07-18T08:11:17;24.70;99.90
19252;DHT22;9760;50.944;5.304;2022-07-18T08:13:43;24.90;99.90
19252;DHT22;9760;50.944;5.304;2022-07-18T08:16:09;25.00;99.90
19252;DHT22;9760;50.944;5.304;2022-07-18T08:18:34;25.10;99.90
19252;DHT22;9760;50.944;5.304;2022-07-18T08:21:00;25.20;99.90
19252;DHT22;9760;50.944;5.304;2022-07-18T08:23:25;25.40;99.90
19252;DHT22;9760;50.944;5.304;2022-07-18T08:25:51;25.50;99.90
19252;DHT22;9760;50.944;5.304;2022-07-18T08:28:17;25.60;99.90
19252;DHT22;9760;50.944;5.304;2022-07-18T08:30:43;25.70;99.90
19252;DHT22;9760;50.944;5.304;2022-07-18T08:33:08;25.80;99.90
19252;DHT22;9760;50.944;5.304;2022-07-18T08:35:34;25.90;99.90
19252;DHT22;9760;50.944;5.304;2022-07-18T08:38:01;26.00;99.90
19252;DHT22;9760;50.944;5.304;2022-07-18T08:40:28;26.10;99.90
19252;DHT22;9760;50.944;5.304;2022-07-18T08:42:55;26.30;99.90
19252;DHT22;9760;50.944;5.304;2022-07-18T08:45:23;26.50;99.90
19252;DHT22;9760;50.944;5.304;2022-07-18T08:47:50;26.60;99.90
19252;DHT22;9760;50.944;5.304;2022-07-18T08:50:17;26.70;99.90
19252;DHT22;9760;50.944;5.304;2022-07-18T08:52:43;26.80;99.90
19252;DHT22;9760;50.944;5.304;2022-07-18T08:55:10;26.90;99.90
19252;DHT22;9760;50.944;5.304;2022-07-18T08:57:36;27.00;99.90
19252;DHT22;9760;50.944;5.304;2022-07-18T09:00:06;27.10;99.90
19252;DHT22;9760;50.944;5.304;2022-07-18T09:02:32;27.20;99.90
19252;DHT22;9760;50.944;5.304;2022-07-18T09:05:00;27.40;99.90
19252;DHT22;9760;50.944;5.304;2022-07-18T09:07:31;27.50;99.90
19252;DHT22;9760;50.944;5.304;2022-07-18T09:09:59;27.60;99.90
19252;DHT22;9760;50.944;5.304;2022-07-18T09:12:29;27.70;99.90
19252;DHT22;9760;50.944;5.304;2022-07-18T09:14:57;27.80;99.90
19252;DHT22;9760;50.944;5.304;2022-07-18T09:17:28;27.70;99.90
19252;DHT22;9760;50.944;5.304;2022-07-18T09:22:29;27.90;99.90
19252;DHT22;9760;50.944;5.304;2022-07-18T09:25:07;27.90;99.20
19252;DHT22;9760;50.944;5.304;2022-07-18T09:27:34;28.00;99.00
19252;DHT22;9760;50.944;5.304;2022-07-18T09:30:24;28.20;98.50
19252;DHT22;9760;50.944;5.304;2022-07-18T09:32:53;28.40;97.50
19252;DHT22;9760;50.944;5.304;2022-07-18T09:35:27;28.40;99.00
19252;DHT22;9760;50.944;5.304;2022-07-18T09:38:36;28.60;97.90
19252;DHT22;9760;50.944;5.304;2022-07-18T09:40:44;28.70;97.70
19252;DHT22;9760;50.944;5.304;2022-07-18T09:43:13;28.90;98.00
19252;DHT22;9760;50.944;5.304;2022-07-18T09:45:40;29.20;97.80
19252;DHT22;9760;50.944;5.304;2022-07-18T09:48:11;29.30;96.80
19252;DHT22;9760;50.944;5.304;2022-07-18T09:50:52;29.40;97.20
19252;DHT22;9760;50.944;5.304;2022-07-18T09:53:22;29.30;97.30
19252;DHT22;9760;50.944;5.304;2022-07-18T09:55:51;29.40;95.60
19252;DHT22;9760;50.944;5.304;2022-07-18T09:58:31;29.50;94.60
19252;DHT22;9760;50.944;5.304;2022-07-18T10:00:59;29.50;93.50
19252;DHT22;9760;50.944;5.304;2022-07-18T10:03:26;29.60;93.50
19252;DHT22;9760;50.944;5.304;2022-07-18T10:05:53;29.80;93.20
19252;DHT22;9760;50.944;5.304;2022-07-18T10:08:30;29.90;93.50
19252;DHT22;9760;50.944;5.304;2022-07-18T10:10:57;29.80;94.70
19252;DHT22;9760;50.944;5.304;2022-07-18T10:13:28;30.10;93.70
19252;DHT22;9760;50.944;5.304;2022-07-18T10:15:54;30.30;93.20
19252;DHT22;9760;50.944;5.304;2022-07-18T10:18:21;30.20;92.00
19252;DHT22;9760;50.944;5.304;2022-07-18T10:23:28;30.10;92.90
19252;DHT22;9760;50.944;5.304;2022-07-18T10:26:17;30.30;92.40
19252;DHT22;9760;50.944;5.304;2022-07-18T10:31:26;30.50;92.20
19252;DHT22;9760;50.944;5.304;2022-07-18T10:33:54;30.70;92.30
19252;DHT22;9760;50.944;5.304;2022-07-18T10:36:21;31.10;91.40
19252;DHT22;9760;50.944;5.304;2022-07-18T11:00:34;33.70;82.50
19252;DHT22;9760;50.944;5.304;2022-07-18T11:18:28;35.20;74.90
19252;DHT22;9760;50.944;5.304;2022-07-18T11:20:55;35.50;74.90
19252;DHT22;9760;50.944;5.304;2022-07-18T11:23:26;35.00;71.70
19252;DHT22;9760;50.944;5.304;2022-07-18T11:25:54;34.70;71.80
19252;DHT22;9760;50.944;5.304;2022-07-18T11:28:22;35.20;69.80
19252;DHT22;9760;50.944;5.304;2022-07-18T11:31:05;35.40;69.50
19252;DHT22;9760;50.944;5.304;2022-07-18T11:33:33;35.70;67.20
19252;DHT22;9760;50.944;5.304;2022-07-18T11:36:13;35.60;67.30
19252;DHT22;9760;50.944;5.304;2022-07-18T11:38:50;35.00;67.50
19252;DHT22;9760;50.944;5.304;2022-07-18T11:41:16;35.40;67.50
19252;DHT22;9760;50.944;5.304;2022-07-18T11:43:44;35.20;67.60
19252;DHT22;9760;50.944;5.304;2022-07-18T11:46:12;35.20;68.30
19252;DHT22;9760;50.944;5.304;2022-07-18T11:48:39;35.70;65.70
19252;DHT22;9760;50.944;5.304;2022-07-18T11:51:09;36.30;65.30
19252;DHT22;9760;50.944;5.304;2022-07-18T11:53:35;36.80;62.80
19252;DHT22;9760;50.944;5.304;2022-07-18T11:56:05;36.60;62.70
19252;DHT22;9760;50.944;5.304;2022-07-18T11:58:38;36.30;63.90
19252;DHT22;9760;50.944;5.304;2022-07-18T12:01:05;35.70;64.70
19252;DHT22;9760;50.944;5.304;2022-07-18T12:03:34;35.60;64.60
19252;DHT22;9760;50.944;5.304;2022-07-18T12:06:17;35.70;65.50
19252;DHT22;9760;50.944;5.304;2022-07-18T12:08:45;35.50;65.10
19252;DHT22;9760;50.944;5.304;2022-07-18T12:13:47;35.10;61.70
19252;DHT22;9760;50.944;5.304;2022-07-18T12:16:23;35.40;61.30
19252;DHT22;9760;50.944;5.304;2022-07-18T12:18:59;35.40;61.20
19252;DHT22;9760;50.944;5.304;2022-07-18T12:24:27;35.00;62.60
19252;DHT22;9760;50.944;5.304;2022-07-18T12:27:10;35.30;63.30
19252;DHT22;9760;50.944;5.304;2022-07-18T12:30:10;35.40;60.80
19252;DHT22;9760;50.944;5.304;2022-07-18T12:32:55;35.20;59.80
19252;DHT22;9760;50.944;5.304;2022-07-18T12:35:32;35.30;59.70
19252;DHT22;9760;50.944;5.304;2022-07-18T12:40:44;34.90;60.50
19252;DHT22;9760;50.944;5.304;2022-07-18T12:43:16;35.00;61.20
19252;DHT22;9760;50.944;5.304;2022-07-18T12:45:43;35.00;61.60
19252;DHT22;9760;50.944;5.304;2022-07-18T12:48:10;35.00;61.90
19252;DHT22;9760;50.944;5.304;2022-07-18T12:50:37;35.10;60.10
19252;DHT22;9760;50.944;5.304;2022-07-18T12:53:03;35.10;62.50
19252;DHT22;9760;50.944;5.304;2022-07-18T12:55:29;34.90;62.60
19252;DHT22;9760;50.944;5.304;2022-07-18T12:57:55;34.70;62.70
19252;DHT22;9760;50.944;5.304;2022-07-18T13:00:21;34.40;60.40
19252;DHT22;9760;50.944;5.304;2022-07-18T13:02:47;34.10;58.60
19252;DHT22;9760;50.944;5.304;2022-07-18T13:05:13;34.00;58.00
19252;DHT22;9760;50.944;5.304;2022-07-18T13:07:39;33.90;58.60
19252;DHT22;9760;50.944;5.304;2022-07-18T13:10:05;33.70;59.30
19252;DHT22;9760;50.944;5.304;2022-07-18T13:12:31;33.60;59.70
19252;DHT22;9760;50.944;5.304;2022-07-18T13:14:57;33.60;59.60
19252;DHT22;9760;50.944;5.304;2022-07-18T13:17:23;33.40;60.10
19252;DHT22;9760;50.944;5.304;2022-07-18T13:19:49;33.20;59.80
19252;DHT22;9760;50.944;5.304;2022-07-18T13:22:16;33.10;60.30
19252;DHT22;9760;50.944;5.304;2022-07-18T13:24:42;33.20;61.70
19252;DHT22;9760;50.944;5.304;2022-07-18T13:27:07;33.20;63.50
19252;DHT22;9760;50.944;5.304;2022-07-18T13:29:34;33.40;60.80
19252;DHT22;9760;50.944;5.304;2022-07-18T13:31:59;33.60;57.60
19252;DHT22;9760;50.944;5.304;2022-07-18T13:34:26;33.50;59.70
19252;DHT22;9760;50.944;5.304;2022-07-18T13:36:52;33.50;57.70
19252;DHT22;9760;50.944;5.304;2022-07-18T13:39:19;33.50;58.00
19252;DHT22;9760;50.944;5.304;2022-07-18T13:41:46;33.50;58.70
19252;DHT22;9760;50.944;5.304;2022-07-18T13:44:12;33.50;59.10
19252;DHT22;9760;50.944;5.304;2022-07-18T13:46:38;33.30;59.40
19252;DHT22;9760;50.944;5.304;2022-07-18T13:49:09;33.40;59.60
19252;DHT22;9760;50.944;5.304;2022-07-18T13:51:36;33.60;58.00
19252;DHT22;9760;50.944;5.304;2022-07-18T13:54:05;33.60;57.80
19252;DHT22;9760;50.944;5.304;2022-07-18T13:56:31;33.60;58.00
19252;DHT22;9760;50.944;5.304;2022-07-18T13:58:58;33.60;58.00
19252;DHT22;9760;50.944;5.304;2022-07-18T14:01:23;33.50;57.90
19252;DHT22;9760;50.944;5.304;2022-07-18T14:03:49;33.50;57.50
19252;DHT22;9760;50.944;5.304;2022-07-18T14:06:15;33.40;59.00
19252;DHT22;9760;50.944;5.304;2022-07-18T14:08:41;33.50;58.90
19252;DHT22;9760;50.944;5.304;2022-07-18T14:11:07;33.60;57.70
19252;DHT22;9760;50.944;5.304;2022-07-18T14:13:32;33.50;57.90
19252;DHT22;9760;50.944;5.304;2022-07-18T14:15:58;33.30;60.10
19252;DHT22;9760;50.944;5.304;2022-07-18T14:18:24;33.60;60.00
19252;DHT22;9760;50.944;5.304;2022-07-18T14:20:49;33.50;58.60
19252;DHT22;9760;50.944;5.304;2022-07-18T14:23:15;33.70;58.00
19252;DHT22;9760;50.944;5.304;2022-07-18T14:25:40;33.80;58.00
19252;DHT22;9760;50.944;5.304;2022-07-18T14:28:06;33.90;57.90
19252;DHT22;9760;50.944;5.304;2022-07-18T14:30:32;34.00;57.60
19252;DHT22;9760;50.944;5.304;2022-07-18T14:32:58;33.80;57.50
19252;DHT22;9760;50.944;5.304;2022-07-18T14:35:24;33.70;58.00
19252;DHT22;9760;50.944;5.304;2022-07-18T14:37:49;33.70;58.20
19252;DHT22;9760;50.944;5.304;2022-07-18T14:40:16;33.70;57.20
19252;DHT22;9760;50.944;5.304;2022-07-18T14:42:41;33.70;57.80
19252;DHT22;9760;50.944;5.304;2022-07-18T14:45:08;33.80;57.80
19252;DHT22;9760;50.944;5.304;2022-07-18T14:47:34;33.90;58.10
19252;DHT22;9760;50.944;5.304;2022-07-18T14:50:02;34.10;58.10
19252;DHT22;9760;50.944;5.304;2022-07-18T14:52:27;34.10;57.10
19252;DHT22;9760;50.944;5.304;2022-07-18T14:54:53;34.00;57.90
19252;DHT22;9760;50.944;5.304;2022-07-18T14:57:19;34.10;57.50
19252;DHT22;9760;50.944;5.304;2022-07-18T14:59:45;34.10;58.60
19252;DHT22;9760;50.944;5.304;2022-07-18T15:02:11;34.20;58.10
19252;DHT22;9760;50.944;5.304;2022-07-18T15:04:38;34.00;57.40
19252;DHT22;9760;50.944;5.304;2022-07-18T15:07:04;34.10;57.40
19252;DHT22;9760;50.944;5.304;2022-07-18T15:09:29;34.20;57.90
19252;DHT22;9760;50.944;5.304;2022-07-18T15:11:55;34.10;57.70
19252;DHT22;9760;50.944;5.304;2022-07-18T15:14:21;34.00;57.70
19252;DHT22;9760;50.944;5.304;2022-07-18T15:16:46;34.00;57.40
19252;DHT22;9760;50.944;5.304;2022-07-18T15:19:12;34.10;57.60
19252;DHT22;9760;50.944;5.304;2022-07-18T15:21:38;34.20;58.10
19252;DHT22;9760;50.944;5.304;2022-07-18T15:24:03;34.30;59.20
19252;DHT22;9760;50.944;5.304;2022-07-18T15:26:29;34.70;57.50
19252;DHT22;9760;50.944;5.304;2022-07-18T15:28:55;34.70;58.00
19252;DHT22;9760;50.944;5.304;2022-07-18T15:31:20;35.10;57.80
19252;DHT22;9760;50.944;5.304;2022-07-18T15:33:46;35.10;57.50
19252;DHT22;9760;50.944;5.304;2022-07-18T15:36:12;36.20;57.80
19252;DHT22;9760;50.944;5.304;2022-07-18T15:38:37;37.40;56.70
19252;DHT22;9760;50.944;5.304;2022-07-18T15:41:10;38.60;55.40
19252;DHT22;9760;50.944;5.304;2022-07-18T15:43:37;39.30;54.50
19252;DHT22;9760;50.944;5.304;2022-07-18T15:46:03;40.00;53.40
19252;DHT22;9760;50.944;5.304;2022-07-18T15:48:30;40.30;53.50
19252;DHT22;9760;50.944;5.304;2022-07-18T15:50:56;41.00;52.70
19252;DHT22;9760;50.944;5.304;2022-07-18T15:53:21;40.20;53.40
19252;DHT22;9760;50.944;5.304;2022-07-18T15:55:47;40.90;52.20
19252;DHT22;9760;50.944;5.304;2022-07-18T15:58:13;41.70;51.90
19252;DHT22;9760;50.944;5.304;2022-07-18T16:00:38;42.10;51.30
19252;DHT22;9760;50.944;5.304;2022-07-18T16:03:04;42.50;50.70
19252;DHT22;9760;50.944;5.304;2022-07-18T16:05:30;43.00;49.40
19252;DHT22;9760;50.944;5.304;2022-07-18T16:07:55;43.30;51.30
19252;DHT22;9760;50.944;5.304;2022-07-18T16:10:21;44.80;48.80
19252;DHT22;9760;50.944;5.304;2022-07-18T16:12:47;43.90;49.50
19252;DHT22;9760;50.944;5.304;2022-07-18T16:15:13;44.40;48.40
19252;DHT22;9760;50.944;5.304;2022-07-18T16:17:39;44.30;49.30
19252;DHT22;9760;50.944;5.304;2022-07-18T16:20:06;44.70;46.90
19252;DHT22;9760;50.944;5.304;2022-07-18T16:22:32;43.40;46.00
19252;DHT22;9760;50.944;5.304;2022-07-18T16:24:57;43.10;46.80
19252;DHT22;9760;50.944;5.304;2022-07-18T16:27:23;43.60;47.20
19252;DHT22;9760;50.944;5.304;2022-07-18T16:29:49;44.10;46.50
19252;DHT22;9760;50.944;5.304;2022-07-18T16:32:14;44.40;47.60
19252;DHT22;9760;50.944;5.304;2022-07-18T16:34:40;44.10;46.80
19252;DHT22;9760;50.944;5.304;2022-07-18T16:37:06;44.20;45.80
19252;DHT22;9760;50.944;5.304;2022-07-18T16:39:31;43.60;45.80